Main page
Satellite images 15-day forecastsClimateMarine weather Cyclones Lightning AirportsFAQ Newsletter About
Weather : Europe Africa North America South America Asia Australia-Oceania Others
Languages Contact

Gloucester, England

Gloucestershire Airport Staverton

latitude: 51-54N, longitude: 002-10W, elevation: 29 m


METAR: EGBJ 230850Z 02006KT 9000 FEW025 20/13 Q1022
short-TAF: EGBJ 230802Z 2309/2318 06009KT 9999 SCT020
long-TAF: missing

Time: 10:17 (09:17 UTC)

Current weather observation

The report was made 27 minutes ago, at 08:50 UTC  
Wind 06 kt from the North/Northeast
Temperature 20°C
Humidity 64%
Pressure 1022 hPa
Visibility 9000 m
Few clouds at a height of 2500 ft

Change units

Forecast

The report was made 1 hour and 2 minutes ago, at 08:15 UTC  
Forecast valid from 23 at 09 UTC to 23 at 18 UTC
Wind 09 kt from the East/Northeast
Visibility 10 km or more
Scattered clouds at a height of 2000 ft
The information on this site is subject to a disclaimer
Weather : Europe Africa North America South America Asia Australia-Oceania Others
Satellite images 15-day forecastsClimateMarine weather Cyclones Lightning AirportsFAQ Languages Contact Newsletter About